Airfield :
LOGIN :

Register | Disclaimer

   EN    FR    IT 

 










Legend :    VFR   Marginal VFR   IFR   Intensive IFR   Very Intensive IFR
Visi :
Ceiling :
>= 8 km
>= 3000ft
5 to 8 km
1000 to 3000 ft
1500m to 5 km
500 to 1000 ft
800 to 1500m
200 to 500 ft
< 800m
< 200 ft
Symbols :   Thunderstorms  Fog  Heavy snow  Heavy precipitations  Wind > 20 kt
SIGMETs :     Misc.  Thunderstorms  Icing  Turbulence  Mountain Waves  Volcanic Ashes







- Airport Elevation : 326 ft
- IATA code : LCG
- Download approach charts


LECO - A Coruna

CURRENT METAR :
  • 121530Z 23003KT 200V260 9999 FEW018 12/06 Q1019 NOSIG

EXPIRED METARs :
  • 121500Z 23004KT 210V270 9999 FEW042 11/07 Q1019 NOSIG
  • 121430Z 25003KT 210V320 9999 SCT042 12/07 Q1019 NOSIG
  • 121400Z 26003KT 200V320 9999 FEW030 11/07 Q1019 NOSIG
  • 121330Z VRB02KT 9999 FEW030 11/08 Q1019 NOSIG
  • 121300Z 19003KT 160V230 9999 FEW030 10/08 Q1019 NOSIG

TAF COR TAF LECO
Valid from the 12 at 15:00 until the 13 at 15:00 UTC


121454Z 1215/1315 23007KT 9999 SCT040 TX14/1314Z TN08/1307Z
PROB40
TEMPO 1216/1218 RA
PROB30
TEMPO 1221/1306 21015G25KT
PROB30
TEMPO 1222/1309 RA BKN010
TEMPO 1310/1315 21015G25KT
No reported NOTAMs for that airfield.
2 SIGMETs reported for the Madrid FIR (LECM) :
 
Severe turbulence
LECM SIGMET 5 VALID 121350/121700 LEVA
LECM MADRID FIR SEV TURB FCST E OF LINE N4411 W00601 - N3750 W00603 FL300/420 MOV E 25KT NC=
Severe turbulence
LECM SIGMET 4 VALID 121300/121500 LEVA
LECM MADRID FIR/UIR SEV TURB FCST E OF LINE N36 W00540 - N4010 W001 FL200/300 MOV E 20KT NC=



MET'MAP, your aeronautical weather chart ! - Copyright ORBIFLY December 2007 - Disclaimer

ORBIFLY MET'MAP TEAM :

Programming & Development : Alexandra Zaïnal
Concept & Development : Baudouin d'Aumeries
Co-Development & Prog : Marc-Olivier Méhu
Technical & hardware support : Manuel Goepfert

Contact : metmap@orbifly.com




SOURCES & CREDITS :

   NOAA